createdAt,value
2017-12-06T00:00:57.245Z,4.90
2017-12-06T00:03:24.818Z,4.90
2017-12-06T00:05:52.377Z,4.80
2017-12-06T00:08:19.961Z,4.80
2017-12-06T00:10:47.516Z,4.80
2017-12-06T00:13:20.811Z,4.90
2017-12-06T00:15:48.379Z,4.80
2017-12-06T00:18:15.941Z,4.90
2017-12-06T00:20:43.582Z,4.90
2017-12-06T00:23:11.127Z,4.90
2017-12-06T00:25:38.743Z,4.90
2017-12-06T00:28:07.139Z,5.00
2017-12-06T00:30:34.821Z,4.90
2017-12-06T00:33:02.380Z,5.00
2017-12-06T00:35:29.951Z,4.90
2017-12-06T00:37:57.602Z,4.90
2017-12-06T00:40:25.178Z,4.90
2017-12-06T00:42:52.868Z,5.00
2017-12-06T00:45:20.428Z,5.00
2017-12-06T00:47:48.016Z,5.00
2017-12-06T00:50:15.587Z,4.90
2017-12-06T00:52:43.144Z,4.90
2017-12-06T00:55:10.730Z,4.80
2017-12-06T00:57:38.300Z,4.80
2017-12-06T01:00:05.923Z,4.80
2017-12-06T01:02:33.472Z,4.80
2017-12-06T01:05:01.072Z,4.80
2017-12-06T01:07:28.662Z,4.80
2017-12-06T01:09:56.383Z,4.90
2017-12-06T01:12:23.974Z,4.90
2017-12-06T01:14:51.539Z,4.90
2017-12-06T01:17:19.899Z,4.90
2017-12-06T01:19:47.559Z,4.90
2017-12-06T01:22:15.117Z,4.90
2017-12-06T01:24:42.678Z,5.00
2017-12-06T01:27:10.307Z,5.00
2017-12-06T01:29:37.878Z,4.90
2017-12-06T01:32:05.491Z,4.90
2017-12-06T01:34:33.808Z,4.90
2017-12-06T01:37:01.401Z,4.90
2017-12-06T01:39:28.966Z,4.90
2017-12-06T01:41:56.516Z,5.00
2017-12-06T01:44:24.251Z,5.00
2017-12-06T01:46:51.827Z,5.00
2017-12-06T01:49:19.430Z,5.00
2017-12-06T01:51:47.019Z,5.00
2017-12-06T01:54:14.667Z,5.00
2017-12-06T01:56:42.263Z,5.00
2017-12-06T01:59:09.995Z,5.00
2017-12-06T02:01:37.584Z,5.00
2017-12-06T02:04:05.224Z,5.00
2017-12-06T02:06:32.923Z,5.00
2017-12-06T02:09:00.477Z,5.10
2017-12-06T02:11:28.030Z,5.00
2017-12-06T02:13:56.405Z,5.00
2017-12-06T02:16:23.981Z,5.00
2017-12-06T02:18:52.346Z,5.00
2017-12-06T02:21:19.908Z,5.00
2017-12-06T02:23:47.467Z,5.00
2017-12-06T02:26:15.819Z,5.10
2017-12-06T02:28:43.390Z,5.10
2017-12-06T02:31:10.986Z,5.10
2017-12-06T02:33:38.548Z,5.10
2017-12-06T02:36:06.119Z,5.10
2017-12-06T02:38:33.704Z,5.10
2017-12-06T02:41:13.379Z,5.10
2017-12-06T02:43:52.987Z,5.10
2017-12-06T02:46:20.559Z,5.00
2017-12-06T02:48:48.193Z,5.10
2017-12-06T02:51:15.922Z,5.10
2017-12-06T02:53:44.280Z,5.00
2017-12-06T02:56:11.850Z,5.00
2017-12-06T02:58:40.178Z,5.00
2017-12-06T03:01:07.860Z,5.00
2017-12-06T03:03:35.438Z,5.00
2017-12-06T03:06:03.793Z,5.10
2017-12-06T03:08:31.347Z,5.10
2017-12-06T03:10:58.898Z,5.00
2017-12-06T03:13:26.504Z,5.10
2017-12-06T03:15:54.070Z,5.10
2017-12-06T03:18:21.652Z,5.00
2017-12-06T03:20:49.206Z,5.00
2017-12-06T03:23:16.794Z,5.00
2017-12-06T03:25:44.393Z,5.00
2017-12-06T03:28:12.796Z,5.10
2017-12-06T03:30:40.360Z,5.00
2017-12-06T03:33:08.022Z,5.10
2017-12-06T03:35:35.566Z,5.00
2017-12-06T03:38:03.162Z,4.90
2017-12-06T03:40:30.716Z,4.90
2017-12-06T03:42:58.318Z,5.00
2017-12-06T03:45:26.734Z,5.10
2017-12-06T03:47:54.307Z,5.10
2017-12-06T03:50:21.885Z,5.00
2017-12-06T03:52:49.457Z,5.00
2017-12-06T03:55:17.059Z,5.10
2017-12-06T03:57:44.627Z,5.00
2017-12-06T04:00:12.310Z,5.00
2017-12-06T04:02:39.898Z,5.00
2017-12-06T04:05:08.215Z,5.10
2017-12-06T04:07:35.791Z,5.10
2017-12-06T04:10:03.487Z,5.00
2017-12-06T04:12:31.074Z,5.00
2017-12-06T04:14:58.640Z,4.90
2017-12-06T04:17:26.215Z,4.90
2017-12-06T04:19:53.836Z,4.90
2017-12-06T04:22:22.151Z,4.90
2017-12-06T04:24:49.754Z,4.90
2017-12-06T04:27:17.369Z,5.00
2017-12-06T04:29:45.030Z,5.10
2017-12-06T04:32:12.595Z,4.90
2017-12-06T04:34:40.207Z,5.00
2017-12-06T04:37:08.634Z,4.90
2017-12-06T04:39:36.279Z,4.90
2017-12-06T04:42:03.979Z,5.00
2017-12-06T04:44:31.659Z,5.00
2017-12-06T04:46:59.370Z,5.00
2017-12-06T04:49:27.128Z,5.00
2017-12-06T04:51:54.688Z,4.90
2017-12-06T04:54:22.271Z,4.90
2017-12-06T04:56:49.824Z,4.90
2017-12-06T04:59:17.403Z,5.00
2017-12-06T05:01:44.994Z,5.00
2017-12-06T05:04:13.319Z,4.90
2017-12-06T05:06:40.957Z,4.90
2017-12-06T05:09:08.519Z,5.00
2017-12-06T05:11:36.080Z,5.00
2017-12-06T05:14:03.852Z,5.00
2017-12-06T05:16:31.403Z,5.00
2017-12-06T05:18:58.990Z,5.00
2017-12-06T05:21:26.587Z,5.00
2017-12-06T05:23:54.955Z,4.90
2017-12-06T05:26:22.611Z,4.90
2017-12-06T05:28:50.168Z,4.90
2017-12-06T05:31:18.547Z,4.90
2017-12-06T05:33:46.878Z,4.90
2017-12-06T05:36:14.448Z,4.90
2017-12-06T05:38:42.033Z,4.90
2017-12-06T05:41:09.645Z,5.00
2017-12-06T05:43:37.238Z,4.90
2017-12-06T05:46:04.803Z,4.90
2017-12-06T05:48:32.366Z,5.00
2017-12-06T05:50:59.956Z,4.90
2017-12-06T05:53:27.532Z,4.90
2017-12-06T05:55:55.110Z,4.90
2017-12-06T05:58:22.670Z,4.90
2017-12-06T06:00:50.267Z,4.90
2017-12-06T06:03:18.619Z,4.90
2017-12-06T06:05:46.186Z,4.90
2017-12-06T06:08:13.822Z,4.90
2017-12-06T06:10:41.382Z,4.90
2017-12-06T06:13:08.974Z,4.90
2017-12-06T06:15:36.547Z,4.90
2017-12-06T06:18:04.881Z,4.90
2017-12-06T06:20:32.466Z,4.90
2017-12-06T06:23:00.025Z,5.00
2017-12-06T06:25:27.682Z,5.00
2017-12-06T06:27:55.248Z,5.00
2017-12-06T06:30:22.834Z,4.90
2017-12-06T06:32:50.635Z,4.90
2017-12-06T06:35:18.381Z,5.00
2017-12-06T06:37:45.962Z,5.00
2017-12-06T06:40:13.535Z,5.00
2017-12-06T06:42:41.126Z,4.90
2017-12-06T06:45:09.447Z,5.00
2017-12-06T06:47:37.046Z,5.00
2017-12-06T06:50:04.603Z,5.00
2017-12-06T06:52:32.255Z,5.00
2017-12-06T06:54:59.834Z,5.00
2017-12-06T06:57:28.175Z,5.00
2017-12-06T06:59:55.767Z,5.00
2017-12-06T07:02:24.185Z,5.00
2017-12-06T07:04:51.746Z,4.90
2017-12-06T07:07:19.343Z,4.90
2017-12-06T07:09:46.900Z,4.90
2017-12-06T07:12:14.526Z,5.00
2017-12-06T07:14:42.197Z,5.00
2017-12-06T07:17:09.771Z,4.90
2017-12-06T07:19:43.049Z,5.00
2017-12-06T07:22:10.607Z,5.00
2017-12-06T07:24:38.217Z,5.00
2017-12-06T07:27:06.602Z,5.00
2017-12-06T07:29:34.158Z,5.00
2017-12-06T07:32:01.746Z,5.00
2017-12-06T07:34:29.319Z,5.00
2017-12-06T07:36:56.943Z,5.00
2017-12-06T07:39:24.499Z,5.00
2017-12-06T07:41:52.050Z,5.00
2017-12-06T07:44:19.655Z,5.00
2017-12-06T07:46:47.254Z,5.00
2017-12-06T07:49:15.630Z,4.90
2017-12-06T07:51:44.002Z,4.90
2017-12-06T07:54:11.635Z,4.90
2017-12-06T07:56:39.230Z,5.10
2017-12-06T07:59:07.590Z,5.00
2017-12-06T08:01:35.174Z,5.00
2017-12-06T08:04:03.511Z,5.10
2017-12-06T08:06:31.139Z,5.00
2017-12-06T08:08:58.695Z,5.10
2017-12-06T08:11:26.255Z,5.10
2017-12-06T08:13:53.859Z,5.10
2017-12-06T08:16:21.414Z,5.10
2017-12-06T08:18:49.823Z,5.20
2017-12-06T08:21:17.390Z,5.10
2017-12-06T08:23:44.947Z,5.10
2017-12-06T08:26:12.531Z,5.20
2017-12-06T08:28:40.202Z,5.20
2017-12-06T08:31:07.802Z,5.20
2017-12-06T08:33:36.135Z,5.10
2017-12-06T08:36:03.722Z,5.10
2017-12-06T08:38:31.342Z,5.10
2017-12-06T08:40:58.926Z,5.20
2017-12-06T08:43:26.538Z,5.20
2017-12-06T08:45:54.224Z,5.10
2017-12-06T08:48:22.551Z,5.30
2017-12-06T08:50:50.913Z,5.20
2017-12-06T08:53:18.472Z,5.20
2017-12-06T08:55:46.111Z,5.30
2017-12-06T08:58:13.688Z,5.30
2017-12-06T09:00:41.242Z,5.20
2017-12-06T09:03:08.987Z,5.20
2017-12-06T09:05:36.543Z,5.20
2017-12-06T09:08:04.111Z,5.20
2017-12-06T09:10:31.703Z,5.20
2017-12-06T09:12:59.262Z,5.20
2017-12-06T09:15:27.708Z,5.20
2017-12-06T09:17:55.296Z,5.20
2017-12-06T09:20:23.675Z,5.20
2017-12-06T09:22:51.247Z,5.20
2017-12-06T09:25:19.570Z,5.30
2017-12-06T09:27:47.146Z,5.30
2017-12-06T09:30:14.802Z,5.30
2017-12-06T09:32:42.417Z,5.30
2017-12-06T09:35:09.970Z,5.30
2017-12-06T09:37:37.551Z,5.20
2017-12-06T09:40:05.207Z,5.30
2017-12-06T09:42:32.787Z,5.30
2017-12-06T09:45:00.336Z,5.20
2017-12-06T09:47:28.102Z,5.20
2017-12-06T09:49:55.719Z,5.20
2017-12-06T09:52:24.043Z,5.20
2017-12-06T09:54:51.675Z,5.20
2017-12-06T09:57:19.252Z,5.30
2017-12-06T09:59:46.843Z,5.30
2017-12-06T10:02:14.427Z,5.20
2017-12-06T10:04:42.788Z,5.30
2017-12-06T10:07:10.503Z,5.30
2017-12-06T10:09:38.174Z,5.30
2017-12-06T10:12:05.791Z,5.30
2017-12-06T10:14:33.439Z,5.20
2017-12-06T10:17:01.775Z,5.20
2017-12-06T10:19:29.402Z,5.20
2017-12-06T10:21:56.971Z,5.20
2017-12-06T10:24:24.571Z,5.30
2017-12-06T10:26:52.363Z,5.20
2017-12-06T10:29:20.715Z,5.40
2017-12-06T10:31:48.446Z,5.40
2017-12-06T10:34:16.039Z,5.40
2017-12-06T10:36:43.587Z,5.40
2017-12-06T10:39:11.182Z,5.40
2017-12-06T10:41:39.514Z,5.40
2017-12-06T10:44:07.115Z,5.30
2017-12-06T10:46:35.454Z,5.30
2017-12-06T10:49:03.184Z,5.30
2017-12-06T10:51:30.802Z,5.20
2017-12-06T10:53:59.183Z,5.30
2017-12-06T10:56:27.530Z,5.40
2017-12-06T10:58:55.107Z,5.40
2017-12-06T11:01:22.717Z,5.40
2017-12-06T11:03:50.274Z,5.30
2017-12-06T11:06:17.855Z,5.40
2017-12-06T11:08:45.435Z,5.30
2017-12-06T11:11:13.030Z,5.30
2017-12-06T11:13:40.595Z,5.30
2017-12-06T11:16:08.154Z,5.30
2017-12-06T11:18:35.778Z,5.40
2017-12-06T11:21:03.339Z,5.50
2017-12-06T11:23:30.899Z,5.50
2017-12-06T11:26:00.118Z,5.40
2017-12-06T11:28:28.438Z,5.40
2017-12-06T11:30:56.023Z,5.40
2017-12-06T11:33:23.587Z,5.30
2017-12-06T11:35:51.212Z,5.30
2017-12-06T11:38:18.763Z,5.40
2017-12-06T11:40:46.334Z,5.40
2017-12-06T11:43:13.998Z,5.30
2017-12-06T11:45:41.583Z,5.40
2017-12-06T11:48:09.172Z,5.40
2017-12-06T11:50:36.727Z,5.50
2017-12-06T11:53:04.312Z,5.50
2017-12-06T11:55:31.867Z,5.40
2017-12-06T11:57:59.454Z,5.50
2017-12-06T12:00:27.052Z,5.50
2017-12-06T12:02:55.436Z,5.50
2017-12-06T12:05:23.223Z,5.50
2017-12-06T12:07:50.783Z,5.50
2017-12-06T12:10:18.478Z,5.70
2017-12-06T12:12:46.039Z,5.60
2017-12-06T12:15:13.618Z,5.60
2017-12-06T12:17:41.217Z,5.60
2017-12-06T12:20:08.827Z,5.60
2017-12-06T12:22:36.370Z,5.50
2017-12-06T12:25:03.951Z,5.60
2017-12-06T12:27:31.509Z,5.70
2017-12-06T12:29:59.115Z,5.80
2017-12-06T12:32:26.789Z,5.80
2017-12-06T12:34:54.345Z,5.70
2017-12-06T12:37:21.950Z,5.70
2017-12-06T12:39:50.426Z,5.70
2017-12-06T12:42:18.781Z,5.70
2017-12-06T12:44:46.388Z,5.70
2017-12-06T12:47:13.937Z,5.70
2017-12-06T12:49:42.274Z,5.70
2017-12-06T12:52:09.855Z,5.80
2017-12-06T12:54:37.422Z,5.80
2017-12-06T12:57:05.793Z,5.80
2017-12-06T12:59:34.123Z,5.70
2017-12-06T13:02:01.716Z,5.70
2017-12-06T13:04:29.287Z,5.70
2017-12-06T13:06:56.946Z,5.80
2017-12-06T13:09:24.563Z,5.90
2017-12-06T13:11:52.121Z,5.90
2017-12-06T13:14:19.710Z,5.90
2017-12-06T13:16:47.266Z,6.00
2017-12-06T13:19:14.858Z,6.00
2017-12-06T13:21:43.185Z,5.90
2017-12-06T13:24:10.750Z,5.90
2017-12-06T13:26:38.339Z,5.90
2017-12-06T13:29:06.755Z,6.00
2017-12-06T13:31:34.363Z,6.00
2017-12-06T13:34:01.951Z,6.00
2017-12-06T13:36:30.274Z,6.10
2017-12-06T13:38:58.828Z,6.10
2017-12-06T13:41:26.446Z,6.00
2017-12-06T13:43:54.002Z,6.10
2017-12-06T13:46:21.614Z,6.20
2017-12-06T13:48:49.219Z,6.10
2017-12-06T13:51:16.937Z,6.20
2017-12-06T13:53:44.495Z,6.20
2017-12-06T13:56:12.057Z,6.10
2017-12-06T13:58:39.642Z,6.10
2017-12-06T14:01:07.198Z,6.00
2017-12-06T14:03:34.864Z,6.00
2017-12-06T14:06:02.424Z,6.00
2017-12-06T14:08:29.986Z,6.10
2017-12-06T14:10:57.618Z,6.00
2017-12-06T14:13:25.186Z,6.00
2017-12-06T14:15:52.779Z,6.00
2017-12-06T14:18:20.347Z,6.10
2017-12-06T14:20:48.883Z,6.10
2017-12-06T14:23:16.527Z,6.10
2017-12-06T14:25:44.296Z,6.10
2017-12-06T14:28:11.916Z,6.20
2017-12-06T14:30:40.321Z,6.00
2017-12-06T14:33:07.928Z,6.00
2017-12-06T14:35:35.499Z,6.00
2017-12-06T14:38:04.126Z,6.10
2017-12-06T14:40:31.723Z,6.10
2017-12-06T14:42:59.307Z,6.00
2017-12-06T14:45:27.668Z,5.90
2017-12-06T14:47:55.309Z,5.90
2017-12-06T14:50:22.980Z,5.90
2017-12-06T14:52:50.731Z,5.90
2017-12-06T14:55:18.287Z,6.00
2017-12-06T14:57:45.890Z,6.10
2017-12-06T15:00:14.238Z,6.00
2017-12-06T15:02:41.878Z,6.00
2017-12-06T15:05:09.459Z,6.10
2017-12-06T15:07:37.064Z,5.90
2017-12-06T15:10:04.643Z,5.90
2017-12-06T15:12:37.730Z,5.90
2017-12-06T15:14:59.838Z,6.00
2017-12-06T15:17:27.402Z,6.00
2017-12-06T15:19:54.954Z,6.10
2017-12-06T15:22:22.542Z,6.10
2017-12-06T15:24:50.239Z,6.00
2017-12-06T15:27:17.838Z,5.80
2017-12-06T15:29:45.395Z,5.90
2017-12-06T15:32:13.023Z,5.90
2017-12-06T15:34:41.507Z,5.90
2017-12-06T15:37:09.916Z,5.90
2017-12-06T15:39:37.560Z,5.90
2017-12-06T15:42:05.127Z,5.90
2017-12-06T15:44:32.726Z,6.00
2017-12-06T15:47:00.342Z,5.90
2017-12-06T15:49:28.018Z,5.90
2017-12-06T15:51:55.595Z,5.90
2017-12-06T15:54:23.159Z,5.90
2017-12-06T15:56:50.782Z,5.80
2017-12-06T15:59:18.338Z,5.70
2017-12-06T16:01:45.948Z,5.80
2017-12-06T16:04:13.539Z,5.80
2017-12-06T16:06:41.938Z,5.80
2017-12-06T16:09:09.567Z,5.80
2017-12-06T16:11:37.250Z,5.60
2017-12-06T16:14:05.759Z,5.60
2017-12-06T16:16:33.563Z,5.60
2017-12-06T16:19:01.132Z,5.70
2017-12-06T16:21:28.762Z,5.70
2017-12-06T16:23:56.327Z,5.80
2017-12-06T16:26:24.962Z,5.70
2017-12-06T16:28:52.588Z,5.70
2017-12-06T16:31:20.140Z,5.80
2017-12-06T16:33:47.730Z,5.60
2017-12-06T16:36:27.130Z,5.60
2017-12-06T16:38:54.718Z,5.70
2017-12-06T16:41:23.047Z,5.50
2017-12-06T16:43:50.667Z,5.50
2017-12-06T16:46:18.311Z,5.50
2017-12-06T16:48:46.797Z,5.50
2017-12-06T16:51:15.132Z,5.50
2017-12-06T16:53:42.739Z,5.50
2017-12-06T16:56:10.354Z,5.50
2017-12-06T16:58:37.915Z,5.60
2017-12-06T17:01:05.650Z,5.60
2017-12-06T17:03:33.204Z,5.60
2017-12-06T17:06:00.840Z,5.60
2017-12-06T17:08:28.445Z,5.50
2017-12-06T17:10:56.007Z,5.50
2017-12-06T17:13:23.620Z,5.60
2017-12-06T17:15:51.366Z,5.60
2017-12-06T17:18:19.715Z,5.60
2017-12-06T17:20:47.308Z,5.60
2017-12-06T17:23:15.792Z,5.60
2017-12-06T17:25:43.391Z,5.60
2017-12-06T17:31:24.252Z,5.80
2017-12-06T17:33:51.819Z,5.50
2017-12-06T17:36:19.514Z,5.50
2017-12-06T17:38:47.103Z,5.60
2017-12-06T17:41:15.474Z,5.30
2017-12-06T17:43:43.162Z,5.30
2017-12-06T17:46:10.732Z,5.20
2017-12-06T17:48:38.326Z,5.20
2017-12-06T17:51:05.915Z,5.20
2017-12-06T17:53:33.496Z,5.30
2017-12-06T17:56:01.146Z,5.20
2017-12-06T17:58:29.487Z,5.30
2017-12-06T18:00:57.167Z,5.30
2017-12-06T18:03:25.516Z,5.20
2017-12-06T18:05:53.132Z,5.20
2017-12-06T18:08:20.716Z,5.20
2017-12-06T18:10:48.364Z,5.20
2017-12-06T18:13:15.928Z,5.20
2017-12-06T18:15:43.554Z,5.10
2017-12-06T18:18:11.923Z,5.10
2017-12-06T18:20:40.262Z,5.10
2017-12-06T18:23:07.908Z,5.10
2017-12-06T18:25:35.494Z,5.10
2017-12-06T18:28:03.111Z,5.10
2017-12-06T18:30:30.696Z,5.10
2017-12-06T18:32:58.263Z,5.00
2017-12-06T18:35:26.024Z,5.00
2017-12-06T18:37:53.616Z,5.00
2017-12-06T18:40:22.129Z,5.10
2017-12-06T18:42:49.720Z,5.10
2017-12-06T18:45:17.393Z,5.10
2017-12-06T18:47:44.967Z,4.90
2017-12-06T18:50:12.596Z,4.90
2017-12-06T18:52:40.155Z,4.90
2017-12-06T18:55:07.732Z,4.80
2017-12-06T18:57:35.339Z,4.80
2017-12-06T19:00:02.959Z,4.80
2017-12-06T19:02:30.529Z,4.70
2017-12-06T19:04:58.900Z,4.80
2017-12-06T19:07:27.265Z,4.80
2017-12-06T19:09:54.845Z,4.80
2017-12-06T19:12:23.213Z,4.80
2017-12-06T19:14:51.566Z,4.80
2017-12-06T19:17:19.152Z,4.80
2017-12-06T19:19:47.516Z,4.70
2017-12-06T19:22:15.137Z,4.70
2017-12-06T19:24:42.720Z,4.70
2017-12-06T19:27:10.360Z,4.60
2017-12-06T19:29:37.940Z,4.70
2017-12-06T19:32:05.995Z,4.70
2017-12-06T19:34:34.061Z,4.70
2017-12-06T19:37:01.660Z,4.60
2017-12-06T19:39:29.295Z,4.60
2017-12-06T19:41:56.887Z,4.50
2017-12-06T19:44:25.257Z,4.50
2017-12-06T19:46:52.879Z,4.50
2017-12-06T19:49:20.528Z,4.50
2017-12-06T19:51:48.123Z,4.40
2017-12-06T19:54:15.699Z,4.30
2017-12-06T19:56:44.231Z,4.30
2017-12-06T19:59:11.834Z,4.30
2017-12-06T20:01:39.452Z,4.30
2017-12-06T20:04:07.030Z,4.30
2017-12-06T20:06:34.656Z,4.30
2017-12-06T20:09:02.230Z,4.40
2017-12-06T20:11:29.964Z,4.30
2017-12-06T20:13:57.650Z,4.30
2017-12-06T20:16:25.302Z,4.20
2017-12-06T20:18:52.919Z,4.20
2017-12-06T20:21:21.268Z,4.20
2017-12-06T20:23:48.875Z,4.20
2017-12-06T20:26:16.496Z,4.20
2017-12-06T20:28:44.117Z,4.30
2017-12-06T20:31:11.697Z,4.10
2017-12-06T20:33:39.313Z,4.00
2017-12-06T20:36:06.894Z,4.00
2017-12-06T20:38:34.556Z,4.00
2017-12-06T20:41:02.155Z,4.00
2017-12-06T20:43:29.735Z,3.80
2017-12-06T20:45:58.113Z,4.10
2017-12-06T20:48:26.447Z,4.00
2017-12-06T20:50:54.183Z,4.00
2017-12-06T20:53:21.780Z,3.80
2017-12-06T20:55:49.390Z,3.70
2017-12-06T20:58:16.976Z,3.70
2017-12-06T21:00:44.604Z,3.80
2017-12-06T21:03:12.182Z,3.70
2017-12-06T21:05:39.808Z,3.70
2017-12-06T21:08:08.195Z,3.60
2017-12-06T21:10:36.716Z,3.50
2017-12-06T21:13:04.362Z,3.50
2017-12-06T21:15:32.006Z,3.50
2017-12-06T21:17:59.585Z,3.40
2017-12-06T21:20:27.168Z,3.40
2017-12-06T21:22:54.751Z,3.50
2017-12-06T21:25:22.355Z,3.50
2017-12-06T21:27:49.960Z,3.50
2017-12-06T21:30:17.535Z,3.50
2017-12-06T21:32:46.003Z,3.70
2017-12-06T21:35:13.578Z,3.60
2017-12-06T21:37:41.943Z,3.50
2017-12-06T21:40:09.557Z,3.50
2017-12-06T21:42:37.139Z,5.10
2017-12-06T21:45:04.746Z,3.50
2017-12-06T21:47:33.091Z,3.50
2017-12-06T21:50:00.692Z,3.40
2017-12-06T21:52:28.284Z,3.40
2017-12-06T21:54:55.923Z,3.50
2017-12-06T21:57:23.500Z,3.60
2017-12-06T21:59:51.059Z,3.60
2017-12-06T22:02:18.764Z,3.50
2017-12-06T22:04:58.994Z,3.40
2017-12-06T22:07:26.620Z,3.40
2017-12-06T22:09:54.184Z,3.40
2017-12-06T22:12:21.797Z,3.30
2017-12-06T22:14:50.155Z,3.20
2017-12-06T22:17:17.731Z,3.20
2017-12-06T22:19:46.091Z,3.10
2017-12-06T22:22:13.652Z,3.10
2017-12-06T22:24:41.292Z,3.20
2017-12-06T22:27:08.863Z,3.20
2017-12-06T22:29:36.427Z,2.90
2017-12-06T22:32:04.095Z,2.80
2017-12-06T22:34:31.662Z,2.80
2017-12-06T22:37:00.026Z,2.80
2017-12-06T22:39:27.636Z,2.70
2017-12-06T22:41:55.242Z,2.80
2017-12-06T22:44:22.811Z,2.80
2017-12-06T22:46:51.191Z,2.70
2017-12-06T22:49:19.557Z,2.80
2017-12-06T22:51:47.138Z,2.80
2017-12-06T22:54:15.602Z,2.70
2017-12-06T22:56:43.944Z,2.80
2017-12-06T22:59:11.531Z,2.70
2017-12-06T23:01:39.143Z,2.60
2017-12-06T23:04:06.704Z,2.60
2017-12-06T23:06:34.343Z,2.60
2017-12-06T23:09:01.934Z,2.60
2017-12-06T23:11:29.488Z,2.60
2017-12-06T23:13:57.099Z,2.70
2017-12-06T23:16:25.457Z,2.60
2017-12-06T23:18:53.071Z,2.60
2017-12-06T23:21:20.643Z,2.70
2017-12-06T23:23:48.251Z,2.60
2017-12-06T23:26:16.795Z,2.60
2017-12-06T23:28:44.396Z,2.60
2017-12-06T23:31:12.882Z,2.60
2017-12-06T23:33:41.392Z,2.60
2017-12-06T23:36:08.984Z,2.60
2017-12-06T23:38:36.554Z,2.50
2017-12-06T23:41:04.139Z,2.20
2017-12-06T23:43:32.463Z,2.10
2017-12-06T23:46:00.069Z,2.10
2017-12-06T23:48:28.419Z,2.30
2017-12-06T23:50:56.063Z,2.30
2017-12-06T23:53:23.853Z,2.20
2017-12-06T23:55:51.487Z,2.20
2017-12-06T23:58:19.053Z,2.20
